Time;durP1;ratioP1;P1;durP2;ratioP2;P2;SDS_P1;SDS_P2;PMS_P1;PMS_P2;Temp;Humidity;BMP_temperature;BMP_pressure;BME280_temperature;BME280_humidity;BME280_pressure;Samples;Min_cycle;Max_cycle;Signal;HPM_P1;HPM_P2
2021/07/14 00:02:21;;;;;;;4.00;3.60;;;14.20;99.90;;;;;;5012198;28;20175;-66
2021/07/14 00:04:47;;;;;;;4.77;4.27;;;14.20;99.90;;;;;;5012090;28;20688;-66
2021/07/14 00:07:13;;;;;;;4.70;4.27;;;14.20;99.90;;;;;;5012454;28;20661;-66
2021/07/14 00:09:38;;;;;;;9.30;4.37;;;14.20;99.90;;;;;;5012051;28;20685;-66
2021/07/14 00:12:07;;;;;;;3.97;3.30;;;14.20;99.90;;;;;;5012604;28;20159;-66
2021/07/14 00:22:24;;;;;;;4.60;4.30;;;14.30;99.90;;;;;;5012411;28;20488;-66
2021/07/14 00:24:50;;;;;;;4.00;3.43;;;14.30;99.90;;;;;;5012141;28;20457;-66
2021/07/14 00:27:16;;;;;;;3.53;3.23;;;14.30;99.90;;;;;;5012255;28;20663;-67
2021/07/14 00:29:52;;;;;;;3.80;3.50;;;14.30;99.90;;;;;;5011854;28;20191;-66
2021/07/14 00:32:18;;;;;;;6.27;4.03;;;14.20;99.90;;;;;;5012459;28;20927;-65
2021/07/14 00:34:44;;;;;;;4.83;3.60;;;14.20;99.90;;;;;;5012140;28;20942;-66
2021/07/14 00:37:10;;;;;;;4.97;4.43;;;14.20;99.90;;;;;;5013920;28;20417;-66
2021/07/14 00:39:37;;;;;;;4.50;4.10;;;14.10;99.90;;;;;;5015589;28;20195;-67
2021/07/14 00:42:03;;;;;;;10.03;4.20;;;14.10;99.90;;;;;;5015919;28;20496;-66
2021/07/14 00:44:29;;;;;;;4.77;4.37;;;14.10;99.90;;;;;;5015829;28;20410;-66
2021/07/14 00:46:55;;;;;;;6.10;4.43;;;14.10;99.90;;;;;;5015773;28;20417;-66
2021/07/14 00:49:21;;;;;;;4.80;4.40;;;14.10;99.90;;;;;;5015359;28;20541;-67
2021/07/14 00:51:46;;;;;;;4.17;3.73;;;14.10;99.90;;;;;;5015779;28;20417;-66
2021/07/14 00:54:13;;;;;;;5.03;3.87;;;14.10;99.90;;;;;;5034526;28;20171;-66
2021/07/14 00:56:39;;;;;;;6.63;4.20;;;14.10;99.90;;;;;;5035033;28;20167;-66
2021/07/14 00:59:06;;;;;;;3.93;3.57;;;14.10;99.90;;;;;;5034712;28;20433;-66
2021/07/14 01:01:32;;;;;;;4.90;4.50;;;14.10;99.90;;;;;;5035139;28;20416;-66
2021/07/14 01:04:17;;;;;;;5.93;4.17;;;14.10;99.90;;;;;;5035245;28;20906;-65
2021/07/14 01:06:51;;;;;;;8.80;7.60;;;14.00;99.90;;;;;;5035182;28;20639;-66
2021/07/14 01:09:22;;;;;;;5.43;5.03;;;13.90;99.90;;;;;;5034591;28;20446;-67
2021/07/14 01:11:51;;;;;;;5.33;4.83;;;13.80;99.90;;;;;;5034847;28;20417;-66
2021/07/14 01:14:22;;;;;;;4.27;3.87;;;13.80;99.90;;;;;;5034966;28;20786;-67
2021/07/14 01:16:56;;;;;;;4.43;4.03;;;13.80;99.90;;;;;;5034984;28;20951;-66
2021/07/14 01:19:59;;;;;;;7.80;4.97;;;13.80;99.90;;;;;;5034471;28;20933;-66
2021/07/14 01:22:55;;;;;;;5.20;4.57;;;13.80;99.90;;;;;;5034856;28;20439;-66
2021/07/14 01:25:38;;;;;;;5.17;4.77;;;13.90;99.90;;;;;;5034689;28;21221;-67
2021/07/14 01:28:05;;;;;;;5.47;4.97;;;13.90;99.90;;;;;;5034753;28;20413;-66
2021/07/14 01:30:31;;;;;;;5.23;4.83;;;13.90;99.90;;;;;;5034382;28;20483;-66
2021/07/14 01:32:58;;;;;;;7.00;4.70;;;13.90;99.90;;;;;;5034629;28;20445;-66
2021/07/14 01:35:31;;;;;;;5.70;5.23;;;13.90;99.90;;;;;;5034465;28;20762;-66
2021/07/14 01:37:58;;;;;;;5.00;4.60;;;13.90;99.90;;;;;;5034374;28;20421;-68
2021/07/14 01:40:24;;;;;;;6.00;5.47;;;13.90;99.90;;;;;;5034198;28;20961;-66
2021/07/14 01:42:55;;;;;;;5.93;5.20;;;13.90;99.90;;;;;;5034688;28;20421;-67
2021/07/14 01:45:21;;;;;;;5.63;5.10;;;14.00;99.90;;;;;;5034405;28;20459;-67
2021/07/14 01:47:48;;;;;;;5.67;4.50;;;14.00;99.90;;;;;;5034413;28;20475;-66
2021/07/14 01:50:14;;;;;;;7.10;6.50;;;14.00;99.90;;;;;;5033784;28;20432;-66
2021/07/14 01:52:41;;;;;;;6.03;5.60;;;14.10;99.90;;;;;;5034237;28;20793;-67
2021/07/14 01:55:08;;;;;;;5.50;4.63;;;14.10;99.90;;;;;;5034240;28;20425;-67
2021/07/14 01:57:37;;;;;;;5.03;4.63;;;14.20;99.90;;;;;;5033904;28;20540;-65
2021/07/14 02:00:08;;;;;;;6.27;5.67;;;14.10;99.90;;;;;;5033425;28;20453;-66
2021/07/14 02:02:37;;;;;;;5.27;4.87;;;14.10;99.90;;;;;;5034067;28;20421;-67
2021/07/14 02:05:04;;;;;;;6.37;5.13;;;14.10;99.90;;;;;;5033886;28;20417;-66
2021/07/14 02:07:34;;;;;;;5.37;4.43;;;14.20;99.90;;;;;;5033935;28;20446;-67
2021/07/14 02:09:59;;;;;;;4.90;4.50;;;14.20;99.90;;;;;;5033654;28;20491;-67
2021/07/14 02:12:29;;;;;;;4.57;4.17;;;14.30;99.90;;;;;;5033909;28;20409;-66
2021/07/14 02:15:02;;;;;;;6.37;5.73;;;14.30;99.90;;;;;;5033656;28;20196;-66
2021/07/14 02:17:33;;;;;;;5.53;4.93;;;14.30;99.90;;;;;;5033738;28;20459;-66
2021/07/14 02:20:04;;;;;;;7.60;4.80;;;14.40;99.90;;;;;;5033202;28;20436;-66
2021/07/14 02:22:29;;;;;;;5.20;4.80;;;14.30;99.90;;;;;;5033648;28;20419;-67
2021/07/14 02:24:55;;;;;;;5.00;4.50;;;14.30;99.90;;;;;;5033503;28;20417;-66
2021/07/14 02:27:21;;;;;;;9.23;5.17;;;14.30;99.90;;;;;;5033515;28;20596;-66
2021/07/14 02:29:50;;;;;;;7.87;5.33;;;14.20;99.90;;;;;;5033062;28;20997;-66
2021/07/14 02:32:18;;;;;;;5.07;4.67;;;14.30;99.90;;;;;;5033371;28;20170;-66
2021/07/14 02:34:45;;;;;;;6.20;4.93;;;14.30;99.90;;;;;;5033335;28;20911;-66
2021/07/14 02:37:13;;;;;;;6.97;4.40;;;14.20;99.90;;;;;;5033326;28;20435;-66
2021/07/14 02:39:41;;;;;;;6.83;4.27;;;14.30;99.90;;;;;;5032723;28;20437;-67
2021/07/14 02:42:27;;;;;;;4.80;4.40;;;14.30;99.90;;;;;;5033193;28;20428;-67
2021/07/14 02:44:53;;;;;;;11.87;5.00;;;14.40;99.90;;;;;;5033335;28;20456;-67
2021/07/14 02:47:21;;;;;;;5.27;4.87;;;14.40;99.90;;;;;;5033147;28;20425;-66
2021/07/14 02:49:47;;;;;;;5.53;4.77;;;14.40;99.90;;;;;;5032864;28;20448;-67
2021/07/14 02:52:14;;;;;;;5.83;4.30;;;14.40;99.90;;;;;;5033154;28;20437;-66
2021/07/14 02:54:43;;;;;;;7.03;4.60;;;14.40;99.90;;;;;;5032960;28;20473;-66
2021/07/14 02:57:13;;;;;;;6.33;4.90;;;14.40;99.90;;;;;;5032914;28;20416;-67
2021/07/14 02:59:41;;;;;;;6.17;5.53;;;14.30;99.90;;;;;;5031804;28;20468;-66
2021/07/14 03:02:08;;;;;;;6.83;5.80;;;14.30;99.90;;;;;;5032842;28;20424;-65
2021/07/14 03:04:41;;;;;;;5.00;4.57;;;14.40;99.90;;;;;;5032952;28;20405;-67
2021/07/14 03:07:10;;;;;;;7.40;5.37;;;14.30;99.90;;;;;;5032889;28;20412;-66
2021/07/14 03:09:39;;;;;;;5.63;5.13;;;14.30;99.90;;;;;;5032554;28;20988;-67
2021/07/14 03:12:11;;;;;;;5.83;5.33;;;14.40;99.90;;;;;;5032603;28;20414;-66
2021/07/14 03:14:40;;;;;;;5.53;5.00;;;14.40;99.90;;;;;;5032633;28;20429;-68
2021/07/14 03:17:06;;;;;;;6.87;6.27;;;14.40;99.90;;;;;;5032664;28;20923;-67
2021/07/14 03:19:33;;;;;;;5.50;5.00;;;14.40;99.90;;;;;;5032296;28;20836;-66
2021/07/14 03:22:00;;;;;;;7.03;6.43;;;14.40;99.90;;;;;;5032635;28;20421;-66
2021/07/14 03:24:25;;;;;;;5.40;4.90;;;14.40;99.90;;;;;;5014642;28;20428;-65
2021/07/14 03:26:51;;;;;;;6.00;5.40;;;14.50;99.90;;;;;;5032461;28;20428;-66
2021/07/14 03:29:17;;;;;;;5.53;5.13;;;14.50;99.90;;;;;;5031577;28;20182;-66
2021/07/14 03:31:45;;;;;;;6.87;5.37;;;14.50;99.90;;;;;;5032556;28;20166;-66
2021/07/14 03:34:11;;;;;;;6.23;5.70;;;14.50;99.90;;;;;;5032558;28;20884;-66
2021/07/14 03:36:37;;;;;;;5.70;5.27;;;14.50;99.90;;;;;;5032499;28;20535;-65
2021/07/14 03:39:03;;;;;;;7.77;4.80;;;14.50;99.90;;;;;;5032095;28;20952;-65
2021/07/14 03:41:30;;;;;;;7.17;5.37;;;14.50;99.90;;;;;;5032354;28;20448;-67
2021/07/14 03:43:57;;;;;;;8.20;5.30;;;14.50;99.90;;;;;;5032456;28;20421;-66
2021/07/14 03:46:24;;;;;;;5.87;5.30;;;14.50;99.90;;;;;;5032214;28;20455;-67
2021/07/14 03:48:53;;;;;;;9.00;4.93;;;14.50;99.90;;;;;;5031625;28;20826;-66
2021/07/14 03:51:21;;;;;;;5.57;5.17;;;14.50;99.90;;;;;;5012419;28;20434;-66
2021/07/14 03:53:48;;;;;;;5.40;4.90;;;14.50;99.90;;;;;;5028011;28;20443;-67
2021/07/14 03:56:14;;;;;;;5.90;5.33;;;14.60;99.90;;;;;;5031910;28;20457;-65
2021/07/14 03:58:43;;;;;;;6.67;6.03;;;14.60;99.90;;;;;;5031888;28;20421;-66
2021/07/14 04:01:11;;;;;;;12.47;6.17;;;14.70;99.90;;;;;;5031784;28;20488;-66
2021/07/14 04:03:39;;;;;;;6.00;5.37;;;14.70;99.90;;;;;;5032633;28;20424;-67
2021/07/14 04:06:07;;;;;;;6.87;5.27;;;14.70;99.90;;;;;;5031906;28;21076;-66
2021/07/14 04:08:37;;;;;;;6.10;5.50;;;14.50;99.90;;;;;;5031830;28;20940;-67
2021/07/14 04:11:02;;;;;;;6.50;5.67;;;14.50;99.90;;;;;;5031897;28;20817;-67
2021/07/14 04:13:28;;;;;;;5.63;5.13;;;14.50;99.90;;;;;;5035925;28;20416;-65
2021/07/14 04:15:53;;;;;;;7.13;6.60;;;14.50;99.90;;;;;;5035842;28;20228;-66
2021/07/14 04:18:19;;;;;;;6.23;5.63;;;14.50;99.90;;;;;;5017933;28;20652;-66
2021/07/14 04:20:44;;;;;;;6.20;5.53;;;14.50;99.90;;;;;;5035452;28;20276;-66
2021/07/14 04:23:10;;;;;;;13.77;6.17;;;14.50;99.90;;;;;;5035912;28;20232;-66
2021/07/14 04:25:36;;;;;;;5.77;5.27;;;14.40;99.90;;;;;;5035651;28;20536;-67
2021/07/14 04:28:02;;;;;;;5.83;5.03;;;14.40;99.90;;;;;;5035451;28;20432;-66
2021/07/14 04:30:28;;;;;;;5.47;5.07;;;14.50;99.90;;;;;;5035176;28;20945;-66
2021/07/14 04:32:53;;;;;;;8.60;6.43;;;14.50;99.90;;;;;;5035525;28;20217;-66
2021/07/14 04:35:19;;;;;;;4.80;4.40;;;14.50;99.90;;;;;;5035392;28;20206;-67
2021/07/14 04:37:47;;;;;;;5.67;5.10;;;14.40;99.90;;;;;;5035438;28;20166;-66
2021/07/14 04:40:13;;;;;;;5.63;4.90;;;14.40;99.90;;;;;;5034934;28;20199;-66
2021/07/14 04:42:38;;;;;;;9.07;5.57;;;14.40;99.90;;;;;;5035212;28;20412;-66
2021/07/14 04:45:04;;;;;;;5.13;4.73;;;14.30;99.90;;;;;;5035254;28;20636;-65
2021/07/14 04:47:30;;;;;;;10.10;9.23;;;14.30;99.90;;;;;;5035452;28;20178;-65
2021/07/14 04:49:55;;;;;;;5.70;5.23;;;14.40;99.90;;;;;;5034922;28;20494;-66
2021/07/14 04:52:21;;;;;;;10.10;4.67;;;14.40;99.90;;;;;;5035138;28;20174;-66
2021/07/14 04:54:46;;;;;;;5.83;5.33;;;14.40;99.90;;;;;;5035074;28;20179;-66
2021/07/14 04:57:12;;;;;;;5.60;5.10;;;14.50;99.90;;;;;;5035146;28;20170;-66
2021/07/14 04:59:38;;;;;;;5.33;4.93;;;14.50;99.90;;;;;;5034555;28;20198;-66
2021/07/14 05:02:04;;;;;;;6.03;5.53;;;14.60;99.90;;;;;;5035082;28;20166;-67
2021/07/14 05:04:34;;;;;;;6.80;5.50;;;14.60;99.90;;;;;;5034735;28;20654;-65
2021/07/14 05:07:00;;;;;;;5.57;5.07;;;14.60;99.90;;;;;;5034942;28;20478;-66
2021/07/14 05:09:25;;;;;;;5.77;5.23;;;14.60;99.90;;;;;;5034286;28;20425;-67
2021/07/14 05:11:51;;;;;;;8.53;7.63;;;14.60;99.90;;;;;;5034854;28;20412;-66
2021/07/14 05:14:17;;;;;;;6.27;5.70;;;14.60;99.90;;;;;;5017294;28;20597;-66
2021/07/14 05:16:43;;;;;;;4.70;4.40;;;14.60;99.90;;;;;;5034546;28;20255;-65
2021/07/14 05:19:09;;;;;;;5.93;5.30;;;14.50;99.90;;;;;;5034306;28;20421;-66
2021/07/14 05:21:35;;;;;;;6.63;4.20;;;14.60;99.90;;;;;;5034736;28;20628;-66
2021/07/14 05:24:00;;;;;;;7.63;5.63;;;14.60;99.90;;;;;;5034132;28;20459;-66
2021/07/14 05:26:26;;;;;;;7.00;5.27;;;14.60;99.90;;;;;;5034691;28;20218;-66
2021/07/14 05:28:52;;;;;;;6.57;6.00;;;14.70;99.90;;;;;;5034321;28;20175;-66
2021/07/14 05:31:17;;;;;;;7.50;4.97;;;14.80;99.90;;;;;;5026031;28;20716;-67
2021/07/14 05:33:43;;;;;;;6.47;5.83;;;14.80;99.90;;;;;;5014567;28;20210;-67
2021/07/14 05:36:11;;;;;;;5.60;5.10;;;14.90;99.90;;;;;;5014480;28;20202;-66
2021/07/14 05:38:38;;;;;;;5.67;5.27;;;15.00;99.90;;;;;;5014447;28;20433;-67
2021/07/14 05:41:03;;;;;;;5.43;4.90;;;15.10;99.90;;;;;;5014468;28;20457;-67
2021/07/14 05:43:29;;;;;;;6.63;4.50;;;15.20;99.90;;;;;;5016687;28;20426;-67
2021/07/14 05:45:55;;;;;;;4.80;4.40;;;15.20;99.90;;;;;;5015598;28;20667;-66
2021/07/14 05:48:21;;;;;;;4.43;4.13;;;15.30;99.90;;;;;;5023872;28;20182;-64
2021/07/14 05:50:47;;;;;;;4.40;4.10;;;15.40;99.90;;;;;;5016367;28;20893;-67
2021/07/14 05:53:13;;;;;;;4.90;4.40;;;15.50;99.90;;;;;;5025160;28;20431;-67
2021/07/14 05:55:38;;;;;;;5.10;4.70;;;15.50;99.90;;;;;;5026314;28;20206;-65
2021/07/14 05:58:04;;;;;;;6.20;4.80;;;15.40;99.90;;;;;;5014195;28;20167;-66
2021/07/14 06:00:30;;;;;;;7.00;3.80;;;15.30;99.90;;;;;;5014715;28;20221;-67
2021/07/14 06:02:56;;;;;;;5.50;4.70;;;15.40;99.90;;;;;;5033662;28;20171;-65
2021/07/14 06:05:22;;;;;;;6.80;4.60;;;15.50;99.90;;;;;;5033584;28;20181;-65
2021/07/14 06:07:48;;;;;;;5.37;4.93;;;15.50;99.90;;;;;;5022309;28;20896;-66
2021/07/14 06:10:14;;;;;;;7.63;4.90;;;15.60;99.90;;;;;;5013414;28;20524;-66
2021/07/14 06:12:39;;;;;;;4.87;4.47;;;15.70;99.90;;;;;;5024293;28;20644;-66
2021/07/14 06:15:06;;;;;;;4.83;4.20;;;15.80;99.90;;;;;;5033632;28;20206;-66
2021/07/14 06:17:31;;;;;;;4.90;4.50;;;15.80;99.90;;;;;;5032993;28;20175;-66
2021/07/14 06:19:57;;;;;;;4.40;4.00;;;15.80;99.90;;;;;;5021541;28;21007;-66
2021/07/14 06:22:22;;;;;;;4.90;4.60;;;15.80;99.90;;;;;;5033135;28;20637;-66
2021/07/14 06:24:48;;;;;;;5.13;4.73;;;15.80;99.90;;;;;;5033382;28;20167;-66
2021/07/14 06:27:13;;;;;;;5.57;5.07;;;15.70;99.90;;;;;;5033349;28;20174;-65
2021/07/14 06:29:39;;;;;;;5.03;4.50;;;15.70;99.90;;;;;;5032909;28;20216;-64
2021/07/14 06:32:05;;;;;;;7.50;4.37;;;15.60;99.90;;;;;;5033071;28;20177;-65
2021/07/14 06:34:31;;;;;;;5.03;4.60;;;15.70;99.90;;;;;;5032341;28;20174;-66
2021/07/14 06:36:58;;;;;;;4.20;3.80;;;15.80;99.90;;;;;;5033044;28;20456;-66
2021/07/14 06:39:23;;;;;;;6.20;4.70;;;15.90;99.90;;;;;;5032617;28;20166;-66
2021/07/14 06:41:50;;;;;;;5.07;4.00;;;15.90;99.90;;;;;;5032941;28;20532;-66
2021/07/14 06:44:16;;;;;;;5.13;4.70;;;16.00;99.90;;;;;;5032974;28;20166;-65
2021/07/14 06:46:41;;;;;;;4.57;4.27;;;16.20;99.90;;;;;;5032745;28;20417;-65
2021/07/14 06:49:07;;;;;;;4.90;3.80;;;16.30;99.90;;;;;;5032501;28;20416;-64
2021/07/14 06:51:32;;;;;;;4.33;4.03;;;16.40;99.90;;;;;;5032735;28;20205;-66
2021/07/14 06:53:58;;;;;;;11.80;10.70;;;16.60;99.90;;;;;;5032800;28;20171;-65
2021/07/14 06:56:23;;;;;;;4.30;3.90;;;16.60;99.90;;;;;;5032646;28;20288;-65
2021/07/14 06:58:49;;;;;;;4.13;3.83;;;16.50;99.90;;;;;;5032234;28;20535;-66
2021/07/14 07:01:15;;;;;;;6.50;4.77;;;16.50;99.90;;;;;;5032442;28;20247;-66
2021/07/14 07:03:40;;;;;;;4.20;3.83;;;16.50;99.90;;;;;;5029569;28;20170;-63
2021/07/14 07:06:06;;;;;;;4.93;4.37;;;16.70;99.90;;;;;;5009896;28;21591;-66
2021/07/14 07:08:35;;;;;;;6.57;5.97;;;17.00;99.90;;;;;;5024115;28;20178;-67
2021/07/14 07:11:01;;;;;;;6.70;4.50;;;16.70;99.90;;;;;;5013765;28;20225;-67
2021/07/14 07:13:27;;;;;;;7.83;4.53;;;16.70;99.90;;;;;;5018046;28;20458;-66
2021/07/14 07:15:53;;;;;;;5.03;4.03;;;16.70;99.90;;;;;;5000710;28;21046;-65
2021/07/14 07:18:21;;;;;;;4.97;4.27;;;16.60;99.90;;;;;;5016803;28;20426;-66
2021/07/14 07:20:47;;;;;;;4.43;3.93;;;16.70;99.90;;;;;;5025521;28;20627;-65
2021/07/14 07:23:13;;;;;;;4.73;4.03;;;16.70;99.90;;;;;;5019468;28;20798;-65
2021/07/14 07:25:39;;;;;;;7.67;4.33;;;16.70;99.90;;;;;;5025391;28;20444;-65
2021/07/14 07:28:11;;;;;;;4.27;3.97;;;16.80;99.90;;;;;;5037088;28;20587;-65
2021/07/14 07:30:36;;;;;;;4.97;4.50;;;16.80;99.90;;;;;;5034512;28;20231;-66
2021/07/14 07:33:02;;;;;;;7.10;4.07;;;16.80;99.90;;;;;;5032060;28;20417;-66
2021/07/14 07:35:28;;;;;;;4.17;3.40;;;16.90;99.90;;;;;;5037653;28;20208;-66
2021/07/14 07:37:53;;;;;;;5.17;4.30;;;17.00;99.90;;;;;;5041526;28;20166;-65
2021/07/14 07:40:19;;;;;;;4.70;4.23;;;17.00;99.90;;;;;;5015532;28;20571;-66
2021/07/14 07:42:44;;;;;;;6.53;5.93;;;17.20;99.90;;;;;;5012168;28;20561;-66
2021/07/14 07:45:10;;;;;;;6.70;6.10;;;17.20;99.90;;;;;;5027228;28;20598;-66
2021/07/14 07:47:36;;;;;;;4.87;4.47;;;17.40;99.90;;;;;;5032905;28;20190;-68
2021/07/14 07:50:03;;;;;;;7.27;4.10;;;17.50;99.90;;;;;;5011843;28;20672;-66
2021/07/14 07:52:29;;;;;;;10.20;7.20;;;17.40;99.90;;;;;;5011998;28;20619;-66
2021/07/14 07:54:55;;;;;;;5.23;4.67;;;17.40;99.90;;;;;;5017515;28;20452;-64
2021/07/14 07:57:22;;;;;;;7.60;6.80;;;17.40;99.90;;;;;;5031530;28;20925;-65
2021/07/14 07:59:48;;;;;;;7.47;4.50;;;17.10;99.90;;;;;;5031269;28;20463;-64
2021/07/14 08:02:13;;;;;;;5.07;4.50;;;17.10;99.90;;;;;;5031767;28;20511;-64
2021/07/14 08:04:38;;;;;;;6.80;4.47;;;17.10;99.90;;;;;;5027747;28;20520;-66
2021/07/14 08:07:04;;;;;;;5.20;4.80;;;17.10;99.90;;;;;;5031592;28;20643;-65
2021/07/14 08:09:30;;;;;;;6.17;4.67;;;17.20;99.90;;;;;;5031377;28;20707;-66
2021/07/14 08:11:55;;;;;;;5.20;4.80;;;17.20;99.90;;;;;;5015647;28;20640;-66
2021/07/14 08:14:21;;;;;;;6.70;5.10;;;17.20;99.90;;;;;;4993572;28;20711;-66
2021/07/14 08:16:46;;;;;;;4.57;4.17;;;17.10;99.90;;;;;;5031219;28;20423;-64
2021/07/14 08:19:12;;;;;;;4.57;4.27;;;17.00;99.90;;;;;;5031422;28;20253;-66
2021/07/14 08:21:38;;;;;;;5.23;4.83;;;17.10;99.90;;;;;;5031135;28;20183;-66
2021/07/14 08:24:04;;;;;;;5.40;4.07;;;17.20;99.90;;;;;;5025503;28;20202;-65
2021/07/14 08:26:30;;;;;;;4.63;4.23;;;17.40;99.90;;;;;;5030307;28;20421;-66
2021/07/14 08:28:56;;;;;;;5.77;5.10;;;17.50;99.90;;;;;;5031072;28;20424;-65
2021/07/14 08:31:23;;;;;;;5.17;4.60;;;17.50;99.90;;;;;;5030965;28;20652;-66
2021/07/14 08:33:48;;;;;;;7.93;5.10;;;17.40;99.90;;;;;;5030707;28;20189;-65
2021/07/14 08:36:14;;;;;;;5.23;4.93;;;17.30;99.90;;;;;;5033323;28;20460;-65
2021/07/14 08:38:40;;;;;;;5.83;4.53;;;17.40;99.90;;;;;;5031150;28;20427;-66
2021/07/14 08:41:08;;;;;;;4.47;4.07;;;17.60;99.90;;;;;;5031063;28;20201;-65
2021/07/14 08:43:36;;;;;;;4.93;4.53;;;17.60;99.90;;;;;;5031350;28;20163;-66
2021/07/14 08:46:02;;;;;;;8.00;4.43;;;17.60;99.90;;;;;;5029546;28;20420;-66
2021/07/14 08:48:28;;;;;;;5.23;4.80;;;17.60;99.90;;;;;;5027860;28;20813;-66
2021/07/14 08:50:59;;;;;;;4.17;3.87;;;17.60;99.90;;;;;;5010942;28;20191;-66
2021/07/14 08:53:26;;;;;;;4.87;4.47;;;17.40;99.90;;;;;;5029130;28;20425;-66
2021/07/14 08:55:55;;;;;;;4.70;4.30;;;17.40;99.90;;;;;;5028866;28;20455;-65
2021/07/14 08:58:23;;;;;;;5.67;5.10;;;17.60;99.90;;;;;;5032793;28;20977;-66
2021/07/14 09:00:50;;;;;;;5.30;4.47;;;17.40;99.90;;;;;;5015258;28;20469;-65
2021/07/14 09:03:17;;;;;;;7.60;3.97;;;17.30;99.90;;;;;;5030620;28;20858;-66
2021/07/14 09:05:43;;;;;;;4.90;4.50;;;17.40;99.90;;;;;;5031149;28;20429;-64
2021/07/14 09:08:09;;;;;;;4.50;4.20;;;17.40;99.90;;;;;;5018451;28;20434;-65
2021/07/14 09:10:35;;;;;;;5.53;5.03;;;17.40;99.90;;;;;;5033469;28;20441;-66
2021/07/14 09:13:02;;;;;;;6.20;4.83;;;17.50;99.90;;;;;;5034693;28;20220;-66
2021/07/14 09:15:31;;;;;;;9.57;5.83;;;17.50;99.90;;;;;;5033687;28;20539;-64
2021/07/14 09:18:01;;;;;;;9.70;5.43;;;17.70;99.90;;;;;;5034616;28;20417;-66
2021/07/14 09:20:28;;;;;;;5.60;5.10;;;17.70;99.90;;;;;;5034012;28;20805;-66
2021/07/14 09:23:02;;;;;;;5.40;5.00;;;17.90;99.90;;;;;;5033876;28;20428;-65
2021/07/14 09:25:28;;;;;;;5.00;4.60;;;17.80;99.90;;;;;;5031310;28;20432;-66
2021/07/14 09:27:59;;;;;;;5.70;5.10;;;17.90;99.90;;;;;;5021603;28;20421;-66
2021/07/14 09:30:27;;;;;;;5.13;4.63;;;18.10;99.90;;;;;;5014039;28;20593;-66
2021/07/14 09:32:59;;;;;;;8.00;7.30;;;18.30;99.90;;;;;;5032220;28;20436;-66
2021/07/14 09:35:35;;;;;;;5.70;5.30;;;18.40;99.90;;;;;;5034331;28;20448;-66
2021/07/14 09:38:05;;;;;;;5.70;5.20;;;18.50;99.90;;;;;;5034060;28;20428;-66
2021/07/14 09:40:31;;;;;;;6.10;5.33;;;18.60;99.90;;;;;;5035101;28;20448;-66
2021/07/14 09:43:06;;;;;;;8.17;5.00;;;18.70;99.90;;;;;;5022353;28;20430;-66
2021/07/14 09:45:39;;;;;;;8.03;4.90;;;18.70;99.90;;;;;;5035635;28;20798;-65
2021/07/14 09:48:06;;;;;;;5.07;4.77;;;18.80;99.90;;;;;;5053545;28;20428;-65
2021/07/14 09:50:37;;;;;;;4.87;4.20;;;18.80;99.90;;;;;;5053429;28;20447;-67
2021/07/14 09:53:06;;;;;;;4.80;4.40;;;19.00;99.90;;;;;;5053637;28;20420;-66
2021/07/14 09:55:32;;;;;;;6.50;4.70;;;19.20;99.90;;;;;;5038152;28;20449;-66
2021/07/14 09:58:09;;;;;;;3.97;3.77;;;19.10;99.90;;;;;;5022151;28;20434;-66
2021/07/14 10:00:42;;;;;;;5.13;3.90;;;19.20;99.90;;;;;;5030177;28;20456;-67
2021/07/14 10:03:07;;;;;;;4.13;3.83;;;19.40;99.90;;;;;;5030155;28;20427;-65
2021/07/14 10:05:33;;;;;;;3.87;3.67;;;19.70;99.90;;;;;;5047821;28;20680;-67
2021/07/14 10:08:17;;;;;;;5.33;3.80;;;20.10;99.90;;;;;;5053252;28;20196;-66
2021/07/14 10:10:42;;;;;;;5.30;4.80;;;20.20;99.90;;;;;;5052958;28;20190;-65
2021/07/14 10:13:09;;;;;;;4.27;3.90;;;20.20;99.90;;;;;;5052787;28;20416;-67
2021/07/14 10:15:35;;;;;;;5.87;4.23;;;20.10;99.90;;;;;;5044942;28;20584;-66
2021/07/14 10:18:00;;;;;;;4.43;4.03;;;20.20;99.90;;;;;;5053132;28;20408;-65
2021/07/14 10:20:33;;;;;;;8.40;5.30;;;20.20;99.90;;;;;;5033500;28;20366;-66
2021/07/14 10:23:03;;;;;;;8.77;4.73;;;20.20;99.90;;;;;;5028716;28;20178;-65
2021/07/14 10:25:29;;;;;;;6.70;4.20;;;20.70;99.90;;;;;;5030835;28;20425;-66
2021/07/14 10:27:57;;;;;;;9.90;5.13;;;20.90;99.90;;;;;;5033059;28;20444;-67
2021/07/14 10:30:24;;;;;;;7.20;4.17;;;21.80;99.90;;;;;;5032726;28;20468;-66
2021/07/14 10:32:51;;;;;;;3.50;3.30;;;22.00;99.90;;;;;;5032882;28;20425;-67
2021/07/14 10:35:21;;;;;;;4.07;3.77;;;21.80;99.90;;;;;;5029721;28;20539;-66
2021/07/14 10:38:12;;;;;;;3.50;3.20;;;22.20;99.90;;;;;;5052551;28;20419;-67
2021/07/14 10:40:38;;;;;;;4.20;2.87;;;23.20;99.90;;;;;;5052528;28;20443;-67
2021/07/14 10:43:04;;;;;;;5.93;3.07;;;24.20;99.90;;;;;;5035854;28;20421;-66
2021/07/14 10:45:29;;;;;;;3.53;3.23;;;24.50;99.90;;;;;;5031486;28;20659;-66
2021/07/14 10:47:56;;;;;;;3.10;2.90;;;24.80;99.90;;;;;;5032727;28;20236;-64
2021/07/14 10:50:24;;;;;;;3.57;3.27;;;24.30;99.90;;;;;;5031653;28;20193;-66
2021/07/14 10:52:51;;;;;;;5.13;3.00;;;24.20;99.90;;;;;;5041224;28;20429;-65
2021/07/14 10:55:24;;;;;;;3.40;2.80;;;24.40;99.90;;;;;;5035955;28;20454;-66
2021/07/14 10:57:52;;;;;;;2.90;2.70;;;24.80;99.90;;;;;;5047565;28;20477;-66
2021/07/14 11:00:18;;;;;;;4.10;2.50;;;26.10;99.90;;;;;;4997690;28;20473;-66
2021/07/14 11:02:50;;;;;;;3.40;2.73;;;26.30;99.90;;;;;;5012670;28;20560;-66
2021/07/14 11:05:31;;;;;;;2.87;2.67;;;25.70;99.90;;;;;;5023118;28;20420;-66
2021/07/14 11:07:57;;;;;;;2.87;2.67;;;25.70;99.90;;;;;;5052190;28;20420;-63
2021/07/14 11:10:22;;;;;;;2.93;2.60;;;26.30;99.90;;;;;;5039404;28;20600;-63
2021/07/14 11:12:48;;;;;;;2.43;2.23;;;25.40;99.90;;;;;;5031641;28;20507;-66
2021/07/14 11:15:31;;;;;;;3.70;2.30;;;25.80;99.90;;;;;;5029787;28;20194;-66
2021/07/14 11:17:57;;;;;;;1.80;1.70;;;26.20;99.90;;;;;;5032042;28;20640;-63
2021/07/14 11:20:35;;;;;;;1.60;1.43;;;27.60;98.20;;;;;;5031398;28;20432;-63
2021/07/14 11:23:21;;;;;;;2.03;1.90;;;28.40;96.30;;;;;;5014529;28;20265;-63
2021/07/14 11:25:50;;;;;;;3.47;2.17;;;27.30;94.60;;;;;;5031371;28;20455;-63
2021/07/14 11:28:16;;;;;;;5.07;2.10;;;28.40;95.30;;;;;;5031832;28;20421;-63
2021/07/14 11:30:44;;;;;;;2.10;2.00;;;28.00;94.60;;;;;;5032268;28;20439;-63
2021/07/14 11:33:18;;;;;;;2.23;1.87;;;28.80;94.40;;;;;;5031927;28;20417;-63
2021/07/14 11:36:05;;;;;;;2.00;1.90;;;28.30;93.30;;;;;;5042166;28;20456;-63
2021/07/14 11:38:33;;;;;;;1.83;1.73;;;28.30;93.70;;;;;;5051687;28;20499;-63
2021/07/14 11:41:02;;;;;;;3.00;2.00;;;27.20;92.90;;;;;;5051910;28;20865;-63
2021/07/14 11:43:49;;;;;;;5.37;2.10;;;25.90;94.50;;;;;;5051837;28;20431;-66
2021/07/14 11:46:18;;;;;;;2.10;2.00;;;25.00;95.90;;;;;;5012869;28;20451;-66
2021/07/14 11:48:47;;;;;;;2.00;1.70;;;25.30;96.40;;;;;;5017579;28;20421;-65
2021/07/14 11:51:15;;;;;;;1.80;1.70;;;25.10;97.10;;;;;;4994234;28;20501;-66
2021/07/14 11:53:44;;;;;;;1.57;1.47;;;25.30;96.80;;;;;;5012082;28;20769;-65
2021/07/14 11:56:29;;;;;;;3.37;2.03;;;25.00;96.40;;;;;;5034762;28;20870;-65
2021/07/14 11:59:05;;;;;;;5.90;2.70;;;24.80;97.10;;;;;;5031422;28;20929;-66
2021/07/14 12:01:30;;;;;;;2.10;2.00;;;25.40;97.20;;;;;;5031661;28;20476;-66
2021/07/14 12:03:59;;;;;;;1.90;1.80;;;25.50;96.10;;;;;;5031640;28;20507;-65
2021/07/14 12:06:34;;;;;;;2.13;1.87;;;25.70;96.30;;;;;;5029746;28;20177;-65
2021/07/14 12:09:20;;;;;;;1.70;1.60;;;26.20;95.70;;;;;;5017241;28;20437;-66
2021/07/14 12:12:06;;;;;;;2.10;2.00;;;26.80;94.10;;;;;;5007549;28;20430;-66
2021/07/14 12:14:38;;;;;;;1.83;1.67;;;26.50;94.50;;;;;;5025361;28;20470;-66
2021/07/14 12:17:33;;;;;;;2.03;1.60;;;26.90;95.10;;;;;;5041705;28;20451;-65
2021/07/14 12:20:00;;;;;;;2.13;1.93;;;27.30;93.90;;;;;;5037911;28;20485;-65
2021/07/14 12:22:30;;;;;;;1.33;1.33;;;27.10;94.00;;;;;;5051418;28;20416;-66
2021/07/14 12:24:58;;;;;;;2.27;2.17;;;26.50;93.60;;;;;;5035833;28;20520;-65
2021/07/14 12:27:25;;;;;;;2.07;1.93;;;26.60;94.50;;;;;;5031056;28;20421;-63
2021/07/14 12:30:09;;;;;;;6.83;2.07;;;25.80;93.90;;;;;;5031015;28;20900;-64
2021/07/14 12:32:45;;;;;;;6.70;2.50;;;25.40;95.20;;;;;;5031378;28;20420;-63
2021/07/14 12:35:17;;;;;;;2.70;2.03;;;25.20;95.70;;;;;;5023245;28;20456;-65
2021/07/14 12:37:53;;;;;;;4.37;2.03;;;25.40;95.10;;;;;;5015696;28;20716;-63
2021/07/14 12:40:20;;;;;;;1.90;1.77;;;25.20;95.70;;;;;;5014876;28;20440;-65
2021/07/14 12:42:46;;;;;;;2.23;1.40;;;24.90;96.10;;;;;;5016733;28;20903;-63
2021/07/14 12:45:27;;;;;;;2.03;1.83;;;25.50;96.10;;;;;;5034198;28;20435;-65
2021/07/14 12:47:53;;;;;;;2.07;1.97;;;26.00;95.00;;;;;;5022599;28;20211;-65
2021/07/14 12:50:26;;;;;;;3.83;2.20;;;26.20;95.50;;;;;;5034459;28;20527;-63
2021/07/14 12:52:57;;;;;;;3.60;2.00;;;26.00;95.00;;;;;;5015166;28;20179;-63
2021/07/14 12:55:23;;;;;;;1.77;1.67;;;25.30;95.50;;;;;;5026203;28;20892;-66
2021/07/14 12:57:53;;;;;;;2.10;1.97;;;25.00;96.80;;;;;;5039590;28;20427;-63
2021/07/14 13:00:22;;;;;;;2.17;1.90;;;25.20;96.50;;;;;;5034340;28;20456;-63